Time;durP1;ratioP1;P1;durP2;ratioP2;P2;SDS_P1;SDS_P2;PMS_P1;PMS_P2;Temp;Humidity;BMP_temperature;BMP_pressure;BME280_temperature;BME280_humidity;BME280_pressure;Samples;Min_cycle;Max_cycle;Signal;HPM_P1;HPM_P2
2023/07/19 00:00:44;;;;;;;164.70;156.05;;;15.80;74.60;;;;;;6167477;23;20036;-90
2023/07/19 00:03:10;;;;;;;157.45;149.10;;;15.80;74.70;;;;;;6191129;23;20485;-90
2023/07/19 00:05:36;;;;;;;171.73;162.75;;;15.80;74.80;;;;;;6143014;23;20024;-90
2023/07/19 00:08:04;;;;;;;157.02;148.75;;;15.80;74.90;;;;;;6207766;23;20503;-90
2023/07/19 00:10:31;;;;;;;154.80;146.75;;;15.80;74.80;;;;;;6192365;23;20098;-90
2023/07/19 00:12:56;;;;;;;150.30;142.35;;;15.80;74.90;;;;;;6190845;23;20046;-89
2023/07/19 00:15:23;;;;;;;155.27;146.77;;;15.80;75.00;;;;;;6166920;23;20098;-89
2023/07/19 00:17:49;;;;;;;161.30;152.63;;;15.80;74.90;;;;;;6158165;23;20047;-90
2023/07/19 00:20:15;;;;;;;151.63;143.55;;;15.70;75.00;;;;;;6192152;23;20020;-90
2023/07/19 00:22:41;;;;;;;159.07;150.57;;;15.70;75.00;;;;;;6189989;23;20070;-90
2023/07/19 00:25:07;;;;;;;161.30;152.65;;;15.60;75.00;;;;;;6167539;23;20346;-90
2023/07/19 00:27:33;;;;;;;164.50;155.52;;;15.60;75.10;;;;;;6157657;23;20036;-90
2023/07/19 00:30:01;;;;;;;153.32;145.35;;;15.60;75.10;;;;;;6168253;23;20020;-90
2023/07/19 00:32:27;;;;;;;161.75;153.27;;;15.60;75.20;;;;;;6190033;23;20032;-90
2023/07/19 00:34:56;;;;;;;157.52;149.20;;;15.60;75.20;;;;;;6193184;23;20511;-90
2023/07/19 00:37:21;;;;;;;155.82;147.63;;;15.60;75.30;;;;;;6159019;23;20016;-89
2023/07/19 00:39:48;;;;;;;140.68;133.32;;;15.60;75.20;;;;;;6192448;23;20078;-90
2023/07/19 00:42:14;;;;;;;126.10;119.45;;;15.60;75.20;;;;;;6165210;23;20020;-90
2023/07/19 00:44:42;;;;;;;146.68;138.82;;;15.60;75.20;;;;;;6142762;23;20025;-90
2023/07/19 00:47:08;;;;;;;137.95;130.77;;;15.60;75.20;;;;;;6182467;23;20577;-89
2023/07/19 00:49:34;;;;;;;156.55;148.35;;;15.60;75.10;;;;;;6192471;23;20016;-89
2023/07/19 00:52:02;;;;;;;169.32;160.18;;;15.60;75.00;;;;;;6191662;23;20020;-90
2023/07/19 00:54:29;;;;;;;152.18;144.07;;;15.60;75.00;;;;;;6190764;23;20024;-89
2023/07/19 00:56:56;;;;;;;133.07;126.05;;;15.60;75.00;;;;;;6183939;23;20091;-89
2023/07/19 00:59:23;;;;;;;160.65;152.05;;;15.60;75.00;;;;;;6190450;23;20020;-90
2023/07/19 01:01:50;;;;;;;152.93;144.52;;;15.60;75.00;;;;;;6191741;23;20027;-90
2023/07/19 01:04:17;;;;;;;161.15;152.57;;;15.60;75.00;;;;;;6189197;23;20028;-90
2023/07/19 01:06:43;;;;;;;147.38;139.45;;;15.60;75.10;;;;;;6160098;23;20016;-90
2023/07/19 01:09:11;;;;;;;154.30;146.15;;;15.60;75.10;;;;;;6189325;23;20012;-90
2023/07/19 01:11:37;;;;;;;162.63;154.02;;;15.60;75.20;;;;;;6191392;23;20442;-90
2023/07/19 01:14:03;;;;;;;156.88;148.38;;;15.60;75.30;;;;;;6165421;23;20099;-91
2023/07/19 01:16:31;;;;;;;164.43;155.40;;;15.60;75.50;;;;;;6156676;23;20017;-89
2023/07/19 01:18:57;;;;;;;160.10;151.55;;;15.60;76.00;;;;;;6158011;23;20017;-89
2023/07/19 01:21:23;;;;;;;175.95;166.63;;;15.60;76.00;;;;;;6186341;23;20038;-90
2023/07/19 01:23:50;;;;;;;178.70;169.25;;;15.60;76.00;;;;;;6185461;23;20021;-90
2023/07/19 01:26:16;;;;;;;161.93;153.00;;;15.60;76.00;;;;;;6159661;23;20071;-90
2023/07/19 01:28:42;;;;;;;153.43;145.43;;;15.60;76.20;;;;;;6179568;23;20408;-89
2023/07/19 01:31:17;;;;;;;156.75;148.57;;;15.60;76.20;;;;;;6161684;23;20024;-90
2023/07/19 01:33:43;;;;;;;159.25;150.52;;;15.60;76.10;;;;;;6185119;23;20040;-90
2023/07/19 01:36:09;;;;;;;168.00;158.80;;;15.60;76.10;;;;;;6185786;23;20016;-89
2023/07/19 01:38:35;;;;;;;154.68;146.63;;;15.60;76.10;;;;;;6179711;23;20071;-90
2023/07/19 01:41:01;;;;;;;166.05;157.40;;;15.60;76.10;;;;;;6186911;23;20021;-89
2023/07/19 01:43:29;;;;;;;177.10;167.75;;;15.60;76.10;;;;;;6184371;23;20033;-90
2023/07/19 01:45:57;;;;;;;171.75;162.57;;;15.60;76.30;;;;;;6161676;23;20056;-90
2023/07/19 01:48:23;;;;;;;168.63;159.77;;;15.60;76.40;;;;;;6177047;23;20028;-89
2023/07/19 01:50:48;;;;;;;164.18;155.18;;;15.60;76.50;;;;;;6186429;23;20067;-90
2023/07/19 01:53:15;;;;;;;172.27;162.90;;;15.60;76.50;;;;;;6185006;23;20534;-89
2023/07/19 01:55:41;;;;;;;168.00;159.38;;;15.60;76.50;;;;;;6185963;23;20017;-90
2023/07/19 01:58:11;;;;;;;160.35;151.88;;;15.60;76.50;;;;;;6151414;23;20452;-90
2023/07/19 02:00:37;;;;;;;154.57;146.25;;;15.60;76.70;;;;;;6162017;23;20016;-90
2023/07/19 02:03:03;;;;;;;180.13;170.75;;;15.60;76.70;;;;;;6184472;23;20437;-89
2023/07/19 02:05:29;;;;;;;166.48;157.75;;;15.60;76.70;;;;;;6186292;23;20025;-90
2023/07/19 02:07:57;;;;;;;157.73;149.05;;;15.60;76.90;;;;;;6176954;23;20024;-90
2023/07/19 02:10:24;;;;;;;174.20;164.73;;;15.60;77.00;;;;;;6137756;23;20021;-90
2023/07/19 02:12:49;;;;;;;172.45;163.50;;;15.60;77.00;;;;;;6159840;23;20029;-90
2023/07/19 02:15:16;;;;;;;157.20;148.80;;;15.60;77.10;;;;;;6160813;23;20016;-90
2023/07/19 02:17:42;;;;;;;143.65;136.13;;;15.60;77.00;;;;;;6201736;23;20087;-90
2023/07/19 02:20:08;;;;;;;135.55;128.13;;;15.60;76.80;;;;;;6186528;23;20418;-90
2023/07/19 02:22:34;;;;;;;134.55;127.40;;;15.60;76.70;;;;;;6170937;23;20099;-90
2023/07/19 02:24:59;;;;;;;166.93;158.20;;;15.60;76.60;;;;;;6161900;23;20047;-90
2023/07/19 02:27:25;;;;;;;161.45;153.05;;;15.60;76.50;;;;;;6126203;23;20032;-91
2023/07/19 02:29:51;;;;;;;170.15;161.20;;;15.60;76.50;;;;;;6137314;23;20023;-90
2023/07/19 02:32:19;;;;;;;155.95;147.75;;;15.60;76.50;;;;;;6159098;22;20099;-90
2023/07/19 02:34:45;;;;;;;140.68;132.77;;;15.60;76.50;;;;;;6162184;23;20815;-89
2023/07/19 02:37:13;;;;;;;167.43;158.50;;;15.60;76.60;;;;;;6178447;23;20028;-90
2023/07/19 02:39:39;;;;;;;170.93;161.80;;;15.60;76.50;;;;;;6161755;23;20814;-90
2023/07/19 02:42:05;;;;;;;164.27;155.65;;;15.60;76.50;;;;;;6170127;23;20075;-90
2023/07/19 02:44:31;;;;;;;153.38;145.43;;;15.60;76.50;;;;;;6186755;23;20016;-90
2023/07/19 02:46:59;;;;;;;180.88;171.38;;;15.60;77.00;;;;;;6128617;23;20886;-90
2023/07/19 02:49:25;;;;;;;168.57;159.05;;;15.60;77.10;;;;;;6184125;23;20043;-90
2023/07/19 02:51:51;;;;;;;181.25;171.65;;;15.60;77.20;;;;;;6185588;23;20020;-90
2023/07/19 02:54:16;;;;;;;166.05;157.23;;;15.60;77.30;;;;;;6184701;23;20016;-90
2023/07/19 02:56:42;;;;;;;174.80;165.50;;;15.60;77.30;;;;;;6154576;23;20040;-90
2023/07/19 02:59:08;;;;;;;169.30;160.02;;;15.60;77.40;;;;;;6158301;23;20343;-90
2023/07/19 03:01:36;;;;;;;180.73;171.05;;;15.60;77.60;;;;;;6186101;23;20021;-91
2023/07/19 03:04:02;;;;;;;170.60;161.43;;;15.50;77.60;;;;;;6174827;23;20020;-90
2023/07/19 03:06:28;;;;;;;150.80;142.95;;;15.50;77.60;;;;;;6206437;23;20221;-90
2023/07/19 03:08:55;;;;;;;153.68;145.50;;;15.50;77.50;;;;;;6156904;23;20025;-91
2023/07/19 03:11:21;;;;;;;157.82;149.32;;;15.50;77.60;;;;;;6185895;23;20458;-90
2023/07/19 03:13:49;;;;;;;168.93;160.02;;;15.50;77.50;;;;;;6184632;23;20070;-91
2023/07/19 03:16:14;;;;;;;163.65;154.82;;;15.50;77.60;;;;;;6185197;23;20035;-91
2023/07/19 03:18:40;;;;;;;163.32;154.60;;;15.50;77.70;;;;;;6180253;23;20017;-91
2023/07/19 03:21:06;;;;;;;173.23;163.50;;;15.50;77.80;;;;;;6163670;23;20079;-90
2023/07/19 03:23:35;;;;;;;166.35;157.07;;;15.40;77.90;;;;;;6185127;23;20017;-90
2023/07/19 03:26:01;;;;;;;156.88;148.38;;;15.40;77.70;;;;;;6163576;23;20020;-90
2023/07/19 03:28:30;;;;;;;174.48;164.90;;;15.40;77.70;;;;;;6177826;23;20091;-90
2023/07/19 03:30:57;;;;;;;176.63;167.10;;;15.40;77.70;;;;;;6188129;23;20016;-90
2023/07/19 03:33:24;;;;;;;157.05;148.77;;;15.40;77.70;;;;;;6176555;23;20066;-90
2023/07/19 03:35:50;;;;;;;166.65;157.70;;;15.40;77.70;;;;;;6188338;23;20032;-90
2023/07/19 03:38:18;;;;;;;179.10;169.48;;;15.40;77.70;;;;;;6179701;23;20028;-91
2023/07/19 03:40:44;;;;;;;170.85;161.38;;;15.30;77.90;;;;;;6188274;23;20099;-92
2023/07/19 03:43:10;;;;;;;175.55;166.25;;;15.30;78.00;;;;;;6186034;23;20383;-90
2023/07/19 03:45:36;;;;;;;159.35;150.82;;;15.30;78.00;;;;;;6188191;23;20095;-91
2023/07/19 03:48:02;;;;;;;155.45;146.75;;;15.30;78.00;;;;;;6153095;23;20090;-91
2023/07/19 03:50:28;;;;;;;152.25;143.82;;;15.30;78.00;;;;;;6188305;23;20026;-91
2023/07/19 03:52:56;;;;;;;174.40;164.73;;;15.30;78.20;;;;;;6136046;23;20206;-91
2023/07/19 03:55:25;;;;;;;161.25;152.45;;;15.30;78.10;;;;;;6187892;23;20020;-90
2023/07/19 03:57:50;;;;;;;155.90;147.52;;;15.30;78.20;;;;;;6176969;23;20027;-91
2023/07/19 04:00:16;;;;;;;155.68;147.15;;;15.30;78.10;;;;;;6188370;23;20549;-90
2023/07/19 04:02:42;;;;;;;149.02;140.90;;;15.20;78.10;;;;;;6184953;23;20021;-91
2023/07/19 04:05:08;;;;;;;151.05;142.80;;;15.20;78.20;;;;;;6187531;23;20023;-91
2023/07/19 04:07:34;;;;;;;170.63;161.13;;;15.20;78.20;;;;;;6177500;23;20092;-90
2023/07/19 04:10:00;;;;;;;173.20;163.43;;;15.20;78.30;;;;;;6187835;23;20023;-91
2023/07/19 04:12:26;;;;;;;167.07;158.23;;;15.20;78.30;;;;;;6185981;22;20043;-91
2023/07/19 04:14:54;;;;;;;164.55;155.32;;;15.20;78.40;;;;;;6162729;23;20017;-91
2023/07/19 04:17:22;;;;;;;183.93;174.18;;;15.20;78.60;;;;;;6153708;23;20470;-91
2023/07/19 04:19:48;;;;;;;160.70;151.60;;;15.20;78.50;;;;;;6187741;23;20012;-90
2023/07/19 04:22:14;;;;;;;160.65;151.68;;;15.20;78.60;;;;;;6135187;22;20327;-90
2023/07/19 04:24:40;;;;;;;160.63;151.63;;;15.30;78.50;;;;;;6163136;23;20502;-89
2023/07/19 04:27:06;;;;;;;159.00;150.18;;;15.30;78.60;;;;;;6139874;23;20012;-90
2023/07/19 04:29:31;;;;;;;147.73;139.57;;;15.30;78.40;;;;;;6186442;23;20028;-91
2023/07/19 04:31:59;;;;;;;165.75;156.68;;;15.30;78.40;;;;;;6162728;23;20024;-91
2023/07/19 04:34:25;;;;;;;148.85;140.40;;;15.30;78.30;;;;;;6184916;23;20017;-91
2023/07/19 04:36:51;;;;;;;167.32;158.18;;;15.30;78.20;;;;;;6155472;23;20074;-91
2023/07/19 04:39:17;;;;;;;154.07;145.68;;;15.40;78.00;;;;;;6187227;23;20068;-91
2023/07/19 04:41:45;;;;;;;163.13;154.27;;;15.40;78.00;;;;;;6187212;23;20012;-91
2023/07/19 04:44:11;;;;;;;155.75;147.05;;;15.40;77.80;;;;;;6184466;23;20024;-91
2023/07/19 04:46:39;;;;;;;153.60;144.90;;;15.50;77.60;;;;;;6153232;23;20012;-91
2023/07/19 04:49:05;;;;;;;145.05;137.15;;;15.50;77.50;;;;;;6180340;23;20021;-91
2023/07/19 04:51:33;;;;;;;148.65;140.55;;;15.50;77.50;;;;;;6183817;23;20351;-91
2023/07/19 04:54:01;;;;;;;149.05;140.52;;;15.50;77.30;;;;;;6181264;23;20125;-90
2023/07/19 04:56:27;;;;;;;146.80;138.57;;;15.50;77.20;;;;;;6157936;23;20028;-90
2023/07/19 04:58:53;;;;;;;134.15;126.97;;;15.50;77.00;;;;;;6181618;23;20021;-90
2023/07/19 05:01:19;;;;;;;136.02;128.18;;;15.60;76.90;;;;;;6187773;23;20028;-90
2023/07/19 05:03:45;;;;;;;137.60;130.10;;;15.60;76.80;;;;;;6174536;23;20511;-89
2023/07/19 05:06:11;;;;;;;144.15;136.30;;;15.60;76.60;;;;;;6185528;23;20059;-92
2023/07/19 05:08:37;;;;;;;143.57;135.77;;;15.60;76.50;;;;;;6178685;23;20025;-91
2023/07/19 05:11:03;;;;;;;137.63;130.20;;;15.60;76.40;;;;;;6162417;23;20079;-91
2023/07/19 05:13:29;;;;;;;138.25;130.85;;;15.60;76.30;;;;;;6184792;23;20095;-91
2023/07/19 05:15:57;;;;;;;134.50;127.50;;;15.60;76.20;;;;;;6158616;23;20052;-90
2023/07/19 05:18:26;;;;;;;143.48;135.50;;;15.60;76.20;;;;;;6202055;23;20016;-90
2023/07/19 05:20:52;;;;;;;131.52;124.05;;;15.60;76.10;;;;;;6187384;23;20066;-91
2023/07/19 05:23:18;;;;;;;148.07;140.27;;;15.60;76.10;;;;;;6184329;23;20067;-91
2023/07/19 05:25:45;;;;;;;145.45;137.70;;;15.60;76.10;;;;;;6187374;23;20020;-90
2023/07/19 05:28:12;;;;;;;153.18;144.68;;;15.70;76.10;;;;;;6177775;23;20044;-91
2023/07/19 05:30:40;;;;;;;143.43;135.63;;;15.70;76.20;;;;;;6139597;23;20031;-89
2023/07/19 05:33:06;;;;;;;132.57;125.53;;;15.70;76.10;;;;;;6161392;23;20047;-90
2023/07/19 05:35:32;;;;;;;124.60;117.55;;;15.70;76.20;;;;;;6162202;23;20020;-90
2023/07/19 05:37:58;;;;;;;130.98;123.85;;;15.70;76.30;;;;;;6155139;23;20051;-90
2023/07/19 05:40:24;;;;;;;138.90;131.20;;;15.70;76.30;;;;;;6162337;23;20025;-91
2023/07/19 05:42:52;;;;;;;150.30;141.93;;;15.70;76.40;;;;;;6184825;23;20012;-91
2023/07/19 05:45:18;;;;;;;138.73;131.15;;;15.80;76.40;;;;;;6187066;23;20021;-91
2023/07/19 05:47:46;;;;;;;137.07;129.52;;;15.80;76.30;;;;;;6152284;23;20021;-90
2023/07/19 05:50:12;;;;;;;134.35;126.93;;;15.80;76.40;;;;;;6186550;23;20052;-92
2023/07/19 05:52:39;;;;;;;137.23;129.52;;;15.80;76.40;;;;;;6184588;23;20327;-90
2023/07/19 05:55:06;;;;;;;131.75;124.45;;;15.80;76.20;;;;;;6137552;23;20354;-91
2023/07/19 05:57:39;;;;;;;135.70;128.35;;;15.80;76.30;;;;;;6177275;23;20012;-91
2023/07/19 06:00:18;;;;;;;132.98;125.78;;;15.80;76.30;;;;;;6162252;23;20013;-91
2023/07/19 06:02:46;;;;;;;141.38;133.77;;;15.80;76.40;;;;;;6184591;23;20048;-91
2023/07/19 06:05:12;;;;;;;147.15;138.57;;;15.80;76.60;;;;;;6188614;23;20455;-91
2023/07/19 06:07:40;;;;;;;141.43;133.48;;;15.80;76.90;;;;;;6177865;23;20020;-91
2023/07/19 06:10:06;;;;;;;136.18;128.75;;;15.80;76.80;;;;;;6186505;23;20472;-93
2023/07/19 06:12:32;;;;;;;135.50;128.18;;;15.80;76.90;;;;;;6184578;23;20020;-93
2023/07/19 06:15:01;;;;;;;146.20;138.18;;;15.80;77.10;;;;;;6189938;23;20108;-92
2023/07/19 06:17:26;;;;;;;149.15;141.05;;;15.70;77.00;;;;;;6182345;23;20039;-93
2023/07/19 06:19:53;;;;;;;145.15;137.40;;;15.70;76.90;;;;;;6191508;23;20346;-90
2023/07/19 06:22:18;;;;;;;146.55;138.88;;;15.60;77.00;;;;;;6176361;22;20013;-92
2023/07/19 06:24:44;;;;;;;142.25;134.77;;;15.60;76.90;;;;;;6191469;23;20016;-91
2023/07/19 06:27:20;;;;;;;;;;;;;;;;;;;;;
2023/07/19 06:29:49;;;;;;;143.68;136.10;;;15.60;76.90;;;;;;6196472;23;20016;-91
2023/07/19 06:32:25;;;;;;;141.48;134.05;;;15.60;76.80;;;;;;6141599;22;20103;-91
2023/07/19 06:34:51;;;;;;;147.50;139.43;;;15.60;76.90;;;;;;6192704;23;20012;-93
2023/07/19 06:37:17;;;;;;;141.65;134.18;;;15.70;76.80;;;;;;6162348;23;20447;-92
2023/07/19 06:40:49;;;;;;;;;;;;;;;;;;;;;
2023/07/19 06:48:40;;;;;;;;;;;;;;;;;;;;;
2023/07/19 06:51:27;;;;;;;134.70;127.25;;;15.80;77.40;;;;;;5800326;24;20022;-92
2023/07/19 06:54:58;;;;;;;150.15;142.05;;;15.80;77.20;;;;;;5853393;24;20029;-92
2023/07/19 07:01:50;;;;;;;152.23;143.85;;;15.90;77.30;;;;;;5936705;24;20031;-92
2023/07/19 07:04:28;;;;;;;;;;;;;;;;;;;;;
2023/07/19 07:07:09;;;;;;;;;;;;;;;;;;;;;
2023/07/19 07:09:36;;;;;;;;;;;16.00;77.70;;;;;;5926100;24;20032;-91
2023/07/19 07:12:22;;;;;;;;;;;;;;;;;;;;;
2023/07/19 07:15:57;;;;;;;146.43;138.68;;;16.00;77.50;;;;;;5926415;24;20061;-93
2023/07/19 07:18:24;;;;;;;151.10;142.82;;;16.10;77.60;;;;;;5941870;23;20091;-92
2023/07/19 07:20:53;;;;;;;139.50;131.80;;;16.10;77.60;;;;;;6053813;23;20025;-92
2023/07/19 07:23:21;;;;;;;137.40;129.50;;;16.20;77.70;;;;;;6175274;23;20031;-93
2023/07/19 07:25:54;;;;;;;138.55;131.10;;;16.20;77.50;;;;;;6187031;23;20102;-92
2023/07/19 07:28:25;;;;;;;140.13;132.75;;;16.20;77.40;;;;;;6155192;23;20024;-92
2023/07/19 07:30:53;;;;;;;150.88;142.98;;;16.30;77.40;;;;;;6178842;23;20016;-92
2023/07/19 07:34:00;;;;;;;144.07;136.00;;;16.40;77.20;;;;;;6154447;23;20028;-93
2023/07/19 07:36:42;;;;;;;;;;;;;;;;;;;;;
2023/07/19 07:39:11;;;;;;;129.27;122.45;;;16.40;77.10;;;;;;6180519;23;20038;-92
2023/07/19 07:41:37;;;;;;;133.80;126.63;;;16.40;76.70;;;;;;6178837;23;20024;-92
2023/07/19 07:44:09;;;;;;;185.25;174.73;;;16.50;76.30;;;;;;6156744;23;20023;-93
2023/07/19 07:46:37;;;;;;;145.38;137.20;;;16.50;76.00;;;;;;6175306;23;20097;-93
2023/07/19 07:49:11;;;;;;;146.25;138.32;;;16.50;75.90;;;;;;6176056;23;20020;-93
2023/07/19 07:51:40;;;;;;;127.90;121.20;;;16.60;75.90;;;;;;6155178;23;20028;-90
2023/07/19 07:54:06;;;;;;;120.38;113.75;;;16.60;75.90;;;;;;6176544;23;20020;-90
2023/07/19 07:56:32;;;;;;;158.75;149.80;;;16.60;75.90;;;;;;6152898;23;20086;-92
2023/07/19 07:59:00;;;;;;;133.18;126.10;;;16.70;75.60;;;;;;6172149;23;20059;-90
2023/07/19 08:01:26;;;;;;;133.13;125.85;;;16.70;75.70;;;;;;6181334;23;20107;-90
2023/07/19 08:03:55;;;;;;;357.67;339.40;;;16.70;75.60;;;;;;6178084;23;20092;-92
2023/07/19 08:06:30;;;;;;;402.20;381.45;;;16.80;75.60;;;;;;6177643;23;20130;-95
2023/07/19 08:09:08;;;;;;;321.52;305.25;;;16.90;74.70;;;;;;6131530;23;20074;-90
2023/07/19 08:11:59;;;;;;;265.27;251.68;;;17.00;75.50;;;;;;6178513;23;20123;-93
2023/07/19 08:14:40;;;;;;;;;;;;;;;;;;;;;
2023/07/19 08:17:41;;;;;;;268.50;254.82;;;17.20;74.90;;;;;;6164645;23;20023;-94
2023/07/19 08:20:13;;;;;;;220.20;208.77;;;17.30;74.30;;;;;;6172712;23;20038;-93
2023/07/19 08:23:28;;;;;;;;;;;;;;;;;;;;;
2023/07/19 08:25:59;;;;;;;201.82;191.00;;;17.50;74.50;;;;;;6194356;23;20115;-91
2023/07/19 08:29:11;;;;;;;243.02;229.60;;;17.60;74.00;;;;;;6144887;23;20048;-93
2023/07/19 08:31:37;;;;;;;;;;;17.60;73.20;;;;;;6159769;23;20024;-90
2023/07/19 08:34:22;;;;;;;;;;;;;;;;;;;;;
2023/07/19 08:37:00;;;;;;;163.88;155.40;;;17.80;72.90;;;;;;6203859;23;20004;-93
2023/07/19 08:40:24;;;;;;;;;;;;;;;;;;;;;
2023/07/19 08:42:53;;;;;;;154.10;145.70;;;17.70;71.30;;;;;;6183375;23;20539;-92
2023/07/19 08:45:44;;;;;;;139.65;132.05;;;17.60;72.20;;;;;;6178261;23;20090;-92
2023/07/19 08:48:43;;;;;;;148.35;140.32;;;17.50;72.30;;;;;;6153398;23;20335;-92
2023/07/19 08:51:23;;;;;;;141.73;134.27;;;17.50;72.60;;;;;;6157770;23;20020;-92
2023/07/19 08:53:49;;;;;;;135.73;128.32;;;17.50;72.60;;;;;;6153892;23;20024;-92
2023/07/19 09:04:56;;;;;;;144.55;136.75;;;17.60;73.00;;;;;;6125344;23;20353;-92
2023/07/19 09:08:03;;;;;;;;;;;;;;;;;;;;;
2023/07/19 09:10:57;;;;;;;157.05;148.98;;;17.60;73.20;;;;;;6072231;23;20410;-92
2023/07/19 09:14:38;;;;;;;163.63;155.10;;;17.60;73.30;;;;;;6050175;23;20029;-95
2023/07/19 09:17:14;;;;;;;152.57;144.57;;;17.60;73.20;;;;;;6039445;23;20034;-94
2023/07/19 09:19:48;;;;;;;168.40;159.77;;;17.60;72.90;;;;;;6101797;23;20035;-92
2023/07/19 09:22:17;;;;;;;152.55;144.65;;;17.80;73.50;;;;;;6129264;23;20021;-92
2023/07/19 09:25:21;;;;;;;162.90;154.45;;;18.00;73.20;;;;;;6143209;23;20020;-93
2023/07/19 09:27:53;;;;;;;174.00;164.77;;;18.00;72.90;;;;;;6139683;23;20013;-91
2023/07/19 09:31:06;;;;;;;;;;;;;;;;;;;;;
2023/07/19 09:33:32;;;;;;;137.85;130.75;;;18.00;72.30;;;;;;6163087;23;20024;-94
2023/07/19 09:36:03;;;;;;;155.63;147.65;;;18.00;72.50;;;;;;6117765;23;20017;-93
2023/07/19 09:38:32;;;;;;;170.15;161.18;;;18.00;72.60;;;;;;6114526;23;20017;-92
2023/07/19 09:41:16;;;;;;;161.48;152.95;;;18.10;72.90;;;;;;6143396;23;20032;-93
2023/07/19 09:43:59;;;;;;;148.45;140.60;;;18.30;72.90;;;;;;6118783;23;20027;-91
2023/07/19 09:46:26;;;;;;;142.50;135.02;;;18.50;72.20;;;;;;6153764;23;20024;-93
2023/07/19 09:49:11;;;;;;;;;;;;;;;;;;;;;
2023/07/19 09:51:55;;;;;;;155.23;146.90;;;18.60;71.80;;;;;;6166878;23;20079;-94
2023/07/19 09:54:24;;;;;;;143.80;136.27;;;18.50;71.50;;;;;;6123778;23;20549;-91
2023/07/19 09:57:02;;;;;;;148.13;140.45;;;18.40;71.50;;;;;;6137841;23;20767;-94
2023/07/19 09:59:40;;;;;;;137.13;129.93;;;18.40;71.50;;;;;;6139273;23;20035;-92
2023/07/19 10:02:16;;;;;;;144.25;136.73;;;18.30;71.70;;;;;;6140298;23;20021;-92
2023/07/19 10:04:48;;;;;;;161.30;152.88;;;18.20;71.20;;;;;;6124072;23;20125;-95
2023/07/19 10:07:19;;;;;;;139.95;132.77;;;18.20;71.20;;;;;;6137053;23;20273;-92
2023/07/19 10:09:48;;;;;;;180.15;170.27;;;18.30;71.80;;;;;;6143196;23;20021;-92
2023/07/19 10:12:36;;;;;;;154.43;145.82;;;18.50;71.50;;;;;;6142653;23;20095;-95
2023/07/19 10:15:13;;;;;;;;;;;;;;;;;;;;;
2023/07/19 10:18:02;;;;;;;160.13;151.38;;;18.50;70.80;;;;;;6186323;23;20141;-93
2023/07/19 10:20:35;;;;;;;113.65;107.85;;;18.40;70.50;;;;;;6156600;23;20024;-93
2023/07/19 10:23:08;;;;;;;134.93;128.10;;;18.40;70.50;;;;;;6164824;23;20020;-91
2023/07/19 10:26:12;;;;;;;144.23;136.73;;;18.30;70.80;;;;;;6178431;23;20016;-95
2023/07/19 10:28:38;;;;;;;128.90;122.30;;;18.40;70.60;;;;;;6143282;23;20048;-92
2023/07/19 10:31:07;;;;;;;131.55;124.70;;;18.30;70.60;;;;;;6151515;23;20056;-93
2023/07/19 10:34:16;;;;;;;132.18;125.35;;;18.40;70.70;;;;;;6160515;23;20455;-94
2023/07/19 10:37:08;;;;;;;135.80;128.40;;;18.50;70.50;;;;;;6147075;23;20860;-94
2023/07/19 10:40:19;;;;;;;;;;;18.50;70.70;;;;;;6178941;23;20024;-95
2023/07/19 10:46:20;;;;;;;;;;;;;;;;;;;;;
2023/07/19 10:48:58;;;;;;;128.52;122.05;;;18.70;70.50;;;;;;6075940;23;20038;-93
2023/07/19 10:51:26;;;;;;;134.57;127.60;;;18.60;70.20;;;;;;6059085;23;20022;-91
2023/07/19 10:57:06;;;;;;;134.52;127.60;;;18.70;69.90;;;;;;6056578;23;20125;-94
2023/07/19 11:00:04;;;;;;;144.15;136.30;;;18.70;69.60;;;;;;6056145;23;20481;-91
2023/07/19 11:03:04;;;;;;;144.10;136.55;;;18.80;69.00;;;;;;6044131;23;20026;-93
2023/07/19 11:05:32;;;;;;;145.68;138.05;;;18.90;69.40;;;;;;6044397;23;20026;-92
2023/07/19 11:08:01;;;;;;;151.27;142.68;;;19.10;69.50;;;;;;6061492;23;20780;-94
2023/07/19 11:10:54;;;;;;;158.05;149.43;;;19.20;69.30;;;;;;6112396;23;20020;-95
2023/07/19 11:13:44;;;;;;;142.77;135.20;;;19.30;68.40;;;;;;6136686;23;20031;-93
2023/07/19 11:16:26;;;;;;;146.77;139.05;;;19.40;68.80;;;;;;6121574;23;20025;-91
2023/07/19 11:19:21;;;;;;;153.20;145.38;;;19.40;68.70;;;;;;6122888;23;20021;-93
2023/07/19 11:22:02;;;;;;;;;;;;;;;;;;;;;
2023/07/19 11:25:20;;;;;;;161.02;152.30;;;19.40;68.50;;;;;;6121951;23;20025;-94
2023/07/19 11:27:49;;;;;;;249.18;231.90;;;19.40;68.30;;;;;;6014179;23;20129;-91
2023/07/19 11:30:25;;;;;;;;;;;;;;;;;;;;;
2023/07/19 11:33:30;;;;;;;162.63;153.88;;;19.20;68.00;;;;;;6161422;23;20032;-94
2023/07/19 11:35:59;;;;;;;160.57;151.88;;;19.20;68.00;;;;;;6117490;23;20024;-92
2023/07/19 11:38:38;;;;;;;151.90;143.63;;;19.10;68.50;;;;;;6139685;23;20021;-94
2023/07/19 11:41:23;;;;;;;167.15;158.32;;;19.10;68.40;;;;;;6122634;23;20518;-92
2023/07/19 11:44:05;;;;;;;159.07;150.48;;;19.20;68.70;;;;;;6130020;23;20017;-93
2023/07/19 11:46:31;;;;;;;165.75;157.02;;;19.30;68.60;;;;;;6141868;23;20024;-94
2023/07/19 11:49:00;;;;;;;155.35;147.20;;;19.30;68.20;;;;;;6116176;23;20025;-91
2023/07/19 11:51:59;;;;;;;171.48;162.32;;;19.20;68.10;;;;;;6144091;23;20013;-92
2023/07/19 11:58:08;;;;;;;193.48;183.20;;;19.30;67.30;;;;;;6044742;23;20026;-91
2023/07/19 12:00:37;;;;;;;135.75;128.60;;;19.40;67.80;;;;;;6056025;23;20077;-91
2023/07/19 12:03:25;;;;;;;158.45;149.75;;;19.30;67.60;;;;;;5993144;23;20059;-93
2023/07/19 12:05:54;;;;;;;153.07;144.75;;;19.30;67.50;;;;;;6031791;23;20019;-93
2023/07/19 12:08:28;;;;;;;150.60;142.63;;;19.30;67.70;;;;;;6058877;23;20073;-94
2023/07/19 12:11:22;;;;;;;153.10;145.05;;;19.30;67.70;;;;;;6120553;23;20025;-91
2023/07/19 12:17:11;;;;;;;167.10;158.23;;;19.40;67.60;;;;;;6145862;23;20021;-94
2023/07/19 12:19:37;;;;;;;141.82;133.50;;;19.30;66.20;;;;;;6138073;23;20021;-92
2023/07/19 12:22:27;;;;;;;170.05;160.23;;;19.30;67.50;;;;;;6119049;23;20387;-93
2023/07/19 12:24:52;;;;;;;152.20;144.07;;;19.30;66.90;;;;;;6171108;23;20067;-90
2023/07/19 12:27:25;;;;;;;144.88;136.98;;;19.20;67.10;;;;;;6109876;23;20044;-96
2023/07/19 12:30:13;;;;;;;161.05;152.35;;;19.30;67.20;;;;;;6145971;23;20017;-92
2023/07/19 12:32:39;;;;;;;145.80;138.35;;;19.40;66.50;;;;;;6136599;23;20043;-90
2023/07/19 12:35:14;;;;;;;164.00;155.18;;;19.40;66.90;;;;;;6117429;23;20538;-93
2023/07/19 12:37:40;;;;;;;152.07;144.18;;;19.40;67.00;;;;;;6112248;23;20881;-92
2023/07/19 12:40:08;;;;;;;157.68;149.13;;;19.50;67.20;;;;;;6144199;23;20025;-93
2023/07/19 12:42:42;;;;;;;176.45;166.45;;;19.60;66.80;;;;;;6120549;23;20021;-90
2023/07/19 12:45:43;;;;;;;167.75;159.20;;;19.70;66.10;;;;;;6128583;23;20013;-92
2023/07/19 12:48:10;;;;;;;164.55;155.73;;;19.70;63.60;;;;;;6135708;23;20048;-91
2023/07/19 12:50:37;;;;;;;166.75;157.88;;;19.70;65.60;;;;;;6120846;23;20025;-92
2023/07/19 12:53:08;;;;;;;159.60;150.98;;;19.70;65.80;;;;;;6106290;23;20959;-92
2023/07/19 12:55:54;;;;;;;165.07;156.30;;;19.70;65.50;;;;;;6122060;23;20122;-93
2023/07/19 13:02:11;;;;;;;171.02;161.98;;;19.70;65.00;;;;;;6104000;23;20458;-90
2023/07/19 13:04:39;;;;;;;182.35;172.27;;;19.60;65.20;;;;;;6085317;23;20067;-93
2023/07/19 13:07:14;;;;;;;173.38;164.18;;;19.60;65.50;;;;;;6135813;23;20021;-92
2023/07/19 13:09:40;;;;;;;177.82;167.95;;;19.70;65.40;;;;;;6142345;23;20033;-93
2023/07/19 13:12:20;;;;;;;;;;;;;;;;;;;;;
2023/07/19 13:15:05;;;;;;;177.32;167.98;;;19.70;65.20;;;;;;6131351;23;20436;-91
2023/07/19 13:17:34;;;;;;;169.65;160.25;;;19.60;65.00;;;;;;6122269;23;20016;-92
2023/07/19 13:20:00;;;;;;;163.98;155.43;;;19.60;65.30;;;;;;6141453;23;20100;-91
2023/07/19 13:22:33;;;;;;;265.48;244.95;;;19.60;65.40;;;;;;6141919;23;20092;-92
2023/07/19 13:25:35;;;;;;;159.98;151.35;;;19.50;63.90;;;;;;6119689;23;20053;-92
2023/07/19 13:28:04;;;;;;;160.60;152.07;;;19.50;65.00;;;;;;6123081;23;20039;-91
2023/07/19 13:30:50;;;;;;;;;;;;;;;;;;;;;
2023/07/19 13:33:20;;;;;;;174.57;165.55;;;19.50;65.30;;;;;;6142139;23;20036;-91
2023/07/19 13:35:48;;;;;;;169.75;160.73;;;19.60;65.20;;;;;;6116486;23;20087;-91
2023/07/19 13:38:44;;;;;;;192.85;182.25;;;19.70;65.20;;;;;;6168340;23;20021;-95